createdAt,value
2023-05-11T00:00:11.894Z,41.99
2023-05-11T00:03:00.296Z,41.99
2023-05-11T00:05:28.392Z,42.16
2023-05-11T00:07:56.285Z,42.24
2023-05-11T00:10:24.113Z,42.20
2023-05-11T00:12:53.020Z,42.39
2023-05-11T00:15:23.343Z,42.78
2023-05-11T00:17:51.387Z,42.66
2023-05-11T00:20:21.539Z,42.81
2023-05-11T00:22:49.444Z,43.04
2023-05-11T00:25:17.377Z,43.08
2023-05-11T00:27:46.269Z,43.17
2023-05-11T00:30:17.972Z,43.18
2023-05-11T00:32:46.205Z,43.28
2023-05-11T00:35:14.115Z,43.42
2023-05-11T00:37:42.013Z,43.45
2023-05-11T00:40:10.137Z,43.57
2023-05-11T00:42:38.022Z,43.72
2023-05-11T00:45:07.869Z,43.73
2023-05-11T00:47:35.804Z,43.92
2023-05-11T00:50:03.921Z,43.93
2023-05-11T00:52:31.964Z,44.22
2023-05-11T00:54:59.841Z,44.10
2023-05-11T00:57:27.882Z,44.15
2023-05-11T00:59:56.085Z,44.07
2023-05-11T01:02:24.019Z,44.30
2023-05-11T01:04:52.951Z,44.53
2023-05-11T01:07:23.904Z,44.77
2023-05-11T01:10:29.736Z,44.53
2023-05-11T01:13:26.934Z,44.57
2023-05-11T01:15:58.868Z,44.64
2023-05-11T01:18:42.408Z,44.70
2023-05-11T01:21:17.549Z,44.86
2023-05-11T01:24:21.275Z,44.88
2023-05-11T01:27:10.740Z,45.18
2023-05-11T01:30:09.947Z,45.18
2023-05-11T01:32:41.862Z,45.41
2023-05-11T01:35:22.333Z,45.23
2023-05-11T01:37:54.047Z,45.40
2023-05-11T01:40:25.993Z,45.44
2023-05-11T01:43:14.387Z,45.59
2023-05-11T01:45:48.540Z,45.83
2023-05-11T01:48:23.010Z,45.83
2023-05-11T01:50:52.493Z,45.90
2023-05-11T01:53:21.608Z,45.97
2023-05-11T01:55:51.652Z,46.05
2023-05-11T01:58:21.919Z,46.23
2023-05-11T02:00:50.353Z,46.27
2023-05-11T02:03:21.019Z,46.37
2023-05-11T02:05:52.586Z,46.39
2023-05-11T02:08:22.366Z,46.41
2023-05-11T02:10:51.060Z,46.56
2023-05-11T02:13:20.245Z,46.62
2023-05-11T02:15:53.200Z,46.83
2023-05-11T02:18:21.418Z,47.05
2023-05-11T02:21:00.005Z,47.28
2023-05-11T02:23:30.816Z,47.31
2023-05-11T02:25:59.817Z,47.40
2023-05-11T02:28:27.902Z,47.44
2023-05-11T02:31:02.037Z,47.46
2023-05-11T02:33:35.868Z,47.63
2023-05-11T02:36:08.263Z,47.47
2023-05-11T02:38:39.517Z,47.62
2023-05-11T02:41:13.513Z,47.75
2023-05-11T02:43:47.586Z,48.03
2023-05-11T02:46:20.378Z,47.94
2023-05-11T02:48:52.807Z,47.88
2023-05-11T02:51:26.674Z,47.80
2023-05-11T02:53:58.084Z,47.90
2023-05-11T02:56:27.258Z,47.90
2023-05-11T02:58:56.047Z,48.16
2023-05-11T03:01:28.047Z,48.25
2023-05-11T03:03:57.865Z,48.03
2023-05-11T03:06:26.911Z,48.20
2023-05-11T03:08:55.070Z,48.07
2023-05-11T03:11:24.136Z,48.13
2023-05-11T03:13:53.202Z,48.13
2023-05-11T03:16:23.024Z,48.08
2023-05-11T03:18:51.941Z,48.24
2023-05-11T03:21:21.525Z,48.29
2023-05-11T03:23:50.116Z,48.23
2023-05-11T03:26:19.608Z,48.29
2023-05-11T03:28:51.046Z,48.35
2023-05-11T03:31:19.032Z,48.44
2023-05-11T03:33:47.207Z,48.45
2023-05-11T03:36:16.133Z,48.30
2023-05-11T03:38:47.472Z,48.26
2023-05-11T03:41:19.152Z,48.50
2023-05-11T03:43:52.570Z,48.36
2023-05-11T03:46:23.849Z,48.21
2023-05-11T03:48:53.179Z,48.46
2023-05-11T03:51:24.157Z,48.44
2023-05-11T03:53:52.067Z,48.44
2023-05-11T03:56:22.245Z,48.41
2023-05-11T03:58:51.008Z,48.43
2023-05-11T04:01:19.507Z,48.24
2023-05-11T04:03:52.035Z,48.36
2023-05-11T04:06:20.535Z,48.41
2023-05-11T04:08:54.216Z,48.67
2023-05-11T04:11:22.258Z,48.65
2023-05-11T04:13:50.476Z,48.76
2023-05-11T04:16:18.400Z,48.71
2023-05-11T04:18:46.317Z,48.71
2023-05-11T04:21:14.244Z,48.62
2023-05-11T04:23:42.993Z,48.83
2023-05-11T04:26:10.847Z,48.78
2023-05-11T04:28:38.692Z,48.91
2023-05-11T04:31:06.572Z,48.94
2023-05-11T04:33:34.525Z,48.93
2023-05-11T04:36:02.474Z,48.96
2023-05-11T04:38:31.105Z,48.95
2023-05-11T04:41:03.748Z,48.98
2023-05-11T04:43:31.883Z,48.95
2023-05-11T04:46:00.160Z,48.89
2023-05-11T04:48:29.020Z,48.99
2023-05-11T04:50:57.795Z,48.97
2023-05-11T04:53:29.971Z,49.07
2023-05-11T04:55:58.359Z,49.12
2023-05-11T04:58:26.210Z,49.03
2023-05-11T05:00:54.242Z,48.89
2023-05-11T05:03:22.267Z,48.94
2023-05-11T05:05:51.482Z,48.92
2023-05-11T05:08:20.340Z,48.82
2023-05-11T05:10:49.566Z,48.71
2023-05-11T05:13:17.387Z,48.56
2023-05-11T05:15:45.308Z,48.40
2023-05-11T05:18:13.295Z,48.29
2023-05-11T05:20:42.344Z,48.29
2023-05-11T05:23:10.212Z,48.08
2023-05-11T05:25:38.148Z,47.94
2023-05-11T05:28:07.240Z,47.87
2023-05-11T05:30:37.295Z,47.60
2023-05-11T05:33:05.463Z,47.36
2023-05-11T05:35:35.018Z,46.87
2023-05-11T05:38:03.274Z,46.50
2023-05-11T05:40:31.240Z,46.35
2023-05-11T05:42:59.340Z,46.08
2023-05-11T05:45:27.176Z,45.82
2023-05-11T05:47:55.672Z,45.55
2023-05-11T05:50:23.877Z,45.39
2023-05-11T05:52:52.484Z,45.02
2023-05-11T05:55:22.566Z,44.62
2023-05-11T05:57:51.686Z,43.83
2023-05-11T06:00:20.251Z,43.40
2023-05-11T06:02:53.959Z,43.37
2023-05-11T06:05:26.037Z,42.81
2023-05-11T06:08:09.235Z,42.59
2023-05-11T06:10:39.009Z,42.37
2023-05-11T06:13:08.779Z,42.23
2023-05-11T06:15:37.055Z,42.21
2023-05-11T06:18:11.314Z,42.00
2023-05-11T06:20:41.185Z,41.88
2023-05-11T06:23:09.547Z,41.49
2023-05-11T06:25:39.742Z,40.97
2023-05-11T06:28:08.115Z,40.88
2023-05-11T06:30:36.560Z,40.67
2023-05-11T06:33:07.055Z,40.36
2023-05-11T06:35:37.699Z,40.52
2023-05-11T06:38:07.116Z,40.43
2023-05-11T06:40:36.489Z,40.42
2023-05-11T06:43:04.426Z,40.11
2023-05-11T06:45:45.767Z,39.13
2023-05-11T06:48:14.387Z,39.02
2023-05-11T06:50:42.423Z,39.35
2023-05-11T06:53:13.952Z,39.23
2023-05-11T06:55:43.198Z,38.24
2023-05-11T06:58:11.248Z,38.40
2023-05-11T07:00:39.793Z,37.78
2023-05-11T07:03:08.181Z,37.65
2023-05-11T07:05:37.741Z,37.72
2023-05-11T07:08:05.971Z,37.60
2023-05-11T07:10:33.987Z,36.89
2023-05-11T07:13:01.923Z,36.68
2023-05-11T07:15:29.825Z,36.70
2023-05-11T07:17:57.795Z,36.92
2023-05-11T07:20:25.857Z,36.45
2023-05-11T07:22:59.393Z,36.77
2023-05-11T07:25:27.420Z,36.70
2023-05-11T07:27:55.309Z,35.99
2023-05-11T07:30:24.545Z,35.02
2023-05-11T07:32:52.806Z,35.30
2023-05-11T07:35:22.120Z,34.29
2023-05-11T07:37:51.270Z,34.45
2023-05-11T07:40:19.566Z,34.73
2023-05-11T07:42:47.642Z,34.56
2023-05-11T07:45:15.616Z,34.63
2023-05-11T07:47:45.290Z,34.33
2023-05-11T07:50:13.300Z,34.51
2023-05-11T07:52:41.773Z,35.06
2023-05-11T07:55:09.926Z,33.61
2023-05-11T07:57:38.039Z,34.46
2023-05-11T08:00:08.358Z,34.17
2023-05-11T08:02:39.715Z,33.25
2023-05-11T08:05:08.613Z,34.01
2023-05-11T08:07:37.819Z,33.86
2023-05-11T08:10:07.739Z,33.70
2023-05-11T08:12:37.141Z,33.23
2023-05-11T08:15:05.976Z,32.62
2023-05-11T08:17:34.602Z,31.81
2023-05-11T08:20:04.188Z,31.01
2023-05-11T08:22:32.198Z,30.91
2023-05-11T08:25:00.065Z,30.49
2023-05-11T08:27:28.433Z,31.44
2023-05-11T08:29:56.309Z,31.33
2023-05-11T08:32:24.320Z,31.34
2023-05-11T08:34:52.701Z,31.46
2023-05-11T08:37:20.849Z,31.60
2023-05-11T08:39:48.872Z,31.43
2023-05-11T08:42:17.568Z,31.04
2023-05-11T08:44:47.896Z,30.86
2023-05-11T08:49:47.553Z,31.18
2023-05-11T08:52:18.383Z,30.83
2023-05-11T08:54:46.983Z,30.32
2023-05-11T08:57:15.246Z,29.66
2023-05-11T08:59:49.316Z,28.45
2023-05-11T09:02:19.402Z,27.89
2023-05-11T09:04:49.097Z,28.00
2023-05-11T09:07:18.679Z,28.80
2023-05-11T09:09:47.658Z,28.38
2023-05-11T09:12:16.935Z,28.13
2023-05-11T09:14:44.950Z,27.14
2023-05-11T09:17:12.931Z,27.13
2023-05-11T09:20:01.782Z,27.75
2023-05-11T09:22:35.388Z,27.51
2023-05-11T09:25:05.157Z,27.48
2023-05-11T09:27:33.168Z,27.27
2023-05-11T09:30:22.194Z,27.91
2023-05-11T09:32:56.730Z,28.93
2023-05-11T09:35:27.491Z,28.72
2023-05-11T09:38:05.831Z,29.05
2023-05-11T09:40:43.308Z,29.07
2023-05-11T09:43:23.519Z,28.17
2023-05-11T09:45:53.985Z,28.56
2023-05-11T09:48:22.146Z,28.23
2023-05-11T09:50:52.563Z,27.09
2023-05-11T09:53:20.670Z,26.37
2023-05-11T09:55:56.016Z,26.78
2023-05-11T09:58:24.019Z,25.95
2023-05-11T10:00:53.865Z,25.29
2023-05-11T10:03:22.098Z,25.16
2023-05-11T10:06:01.123Z,24.94
2023-05-11T10:08:34.526Z,24.69
2023-05-11T10:11:04.464Z,24.09
2023-05-11T10:13:34.116Z,24.74
2023-05-11T10:16:04.753Z,24.97
2023-05-11T10:18:33.790Z,25.50
2023-05-11T10:21:02.404Z,24.29
2023-05-11T10:23:33.775Z,21.96
2023-05-11T10:26:04.730Z,21.74
2023-05-11T10:28:33.559Z,21.29
2023-05-11T10:31:05.005Z,22.17
2023-05-11T10:33:33.123Z,22.13
2023-05-11T10:36:02.615Z,22.25
2023-05-11T10:38:30.639Z,21.18
2023-05-11T10:41:12.848Z,21.40
2023-05-11T10:44:07.452Z,20.64
2023-05-11T10:46:56.798Z,20.37
2023-05-11T10:49:39.402Z,20.32
2023-05-11T10:52:49.817Z,20.69
2023-05-11T10:55:46.198Z,21.37
2023-05-11T10:58:16.838Z,21.16
2023-05-11T11:00:59.904Z,20.42
2023-05-11T11:03:28.701Z,20.76
2023-05-11T11:05:58.597Z,20.74
2023-05-11T11:08:28.733Z,20.73
2023-05-11T11:10:56.833Z,19.75
2023-05-11T11:13:24.711Z,19.55
2023-05-11T11:15:55.744Z,20.24
2023-05-11T11:18:27.588Z,20.92
2023-05-11T11:20:57.587Z,20.88
2023-05-11T11:23:41.665Z,20.01
2023-05-11T11:26:11.976Z,19.52
2023-05-11T11:28:58.447Z,20.37
2023-05-11T11:31:31.858Z,20.57
2023-05-11T11:34:28.822Z,20.24
2023-05-11T11:37:24.070Z,19.57
2023-05-11T11:40:08.870Z,20.00
2023-05-11T11:42:42.831Z,18.85
2023-05-11T11:45:32.499Z,19.42
2023-05-11T11:48:13.463Z,20.22
2023-05-11T11:50:43.655Z,20.58
2023-05-11T11:53:13.530Z,20.50
2023-05-11T11:55:52.196Z,19.39
2023-05-11T11:58:41.837Z,19.99
2023-05-11T12:01:16.737Z,20.12
2023-05-11T12:03:47.236Z,19.35
2023-05-11T12:06:15.602Z,19.73
2023-05-11T12:08:43.531Z,19.89
2023-05-11T12:11:11.521Z,19.93
2023-05-11T12:13:39.608Z,20.24
2023-05-11T12:16:14.329Z,20.24
2023-05-11T12:18:51.084Z,20.11
2023-05-11T12:21:21.386Z,19.67
2023-05-11T12:24:00.819Z,20.13
2023-05-11T12:26:30.787Z,19.94
2023-05-11T12:29:13.330Z,20.23
2023-05-11T12:31:44.234Z,19.94
2023-05-11T12:34:16.700Z,20.93
2023-05-11T12:36:49.642Z,21.73
2023-05-11T12:39:28.516Z,21.80
2023-05-11T12:41:57.763Z,22.34
2023-05-11T12:44:27.269Z,22.46
2023-05-11T12:46:55.512Z,21.59
2023-05-11T12:49:25.875Z,20.98
2023-05-11T12:51:57.770Z,21.64
2023-05-11T12:54:51.762Z,21.78
2023-05-11T12:57:25.472Z,22.08
2023-05-11T13:00:08.144Z,22.19
2023-05-11T13:02:43.461Z,22.17
2023-05-11T13:05:13.705Z,22.37
2023-05-11T13:07:42.172Z,22.40
2023-05-11T13:10:11.818Z,22.06
2023-05-11T13:12:51.927Z,22.30
2023-05-11T13:15:22.275Z,22.25
2023-05-11T13:18:02.782Z,22.61
2023-05-11T13:20:33.394Z,22.88
2023-05-11T13:23:12.782Z,23.29
2023-05-11T13:25:48.842Z,22.96
2023-05-11T13:28:18.739Z,23.28
2023-05-11T13:30:48.215Z,23.58
2023-05-11T13:33:16.167Z,23.75
2023-05-11T13:35:45.003Z,23.65
2023-05-11T13:38:13.220Z,23.27
2023-05-11T13:40:41.067Z,23.35
2023-05-11T13:43:08.929Z,23.07
2023-05-11T13:45:36.829Z,23.19
2023-05-11T13:48:05.055Z,23.65
2023-05-11T13:50:32.910Z,23.35
2023-05-11T13:53:00.802Z,22.98
2023-05-11T13:55:29.648Z,23.19
2023-05-11T13:57:58.137Z,23.88
2023-05-11T14:00:26.398Z,23.59
2023-05-11T14:02:54.470Z,23.51
2023-05-11T14:05:22.643Z,23.60
2023-05-11T14:07:51.312Z,23.92
2023-05-11T14:10:19.643Z,23.55
2023-05-11T14:12:47.644Z,23.34
2023-05-11T14:15:15.740Z,23.33
2023-05-11T14:17:44.044Z,23.34
2023-05-11T14:20:13.125Z,23.36
2023-05-11T14:22:41.585Z,23.62
2023-05-11T14:25:09.759Z,23.88
2023-05-11T14:27:37.924Z,23.89
2023-05-11T14:30:07.409Z,23.74
2023-05-11T14:32:35.362Z,23.70
2023-05-11T14:35:03.497Z,23.83
2023-05-11T14:37:31.456Z,24.29
2023-05-11T14:39:59.887Z,24.16
2023-05-11T14:42:30.696Z,24.08
2023-05-11T14:44:58.803Z,24.33
2023-05-11T14:47:26.777Z,24.45
2023-05-11T14:49:54.680Z,24.29
2023-05-11T14:52:22.588Z,24.42
2023-05-11T14:54:51.077Z,24.31
2023-05-11T14:57:18.961Z,24.51
2023-05-11T14:59:58.404Z,24.28
2023-05-11T15:02:27.633Z,24.24
2023-05-11T15:04:56.071Z,24.21
2023-05-11T15:07:23.932Z,24.68
2023-05-11T15:09:52.095Z,24.47
2023-05-11T15:12:19.957Z,24.47
2023-05-11T15:14:48.045Z,24.25
2023-05-11T15:17:16.089Z,24.23
2023-05-11T15:19:43.921Z,24.43
2023-05-11T15:22:11.807Z,24.41
2023-05-11T15:24:39.604Z,24.41
2023-05-11T15:27:07.576Z,24.46
2023-05-11T15:29:35.561Z,24.56
2023-05-11T15:32:03.720Z,24.91
2023-05-11T15:34:31.762Z,25.18
2023-05-11T15:37:00.345Z,25.35
2023-05-11T15:39:28.319Z,25.43
2023-05-11T15:41:56.294Z,25.39
2023-05-11T15:44:24.267Z,25.36
2023-05-11T15:46:52.158Z,25.47
2023-05-11T15:49:20.042Z,25.37
2023-05-11T15:51:48.068Z,25.68
2023-05-11T15:54:16.023Z,25.48
2023-05-11T15:56:43.883Z,25.46
2023-05-11T15:59:11.920Z,25.83
2023-05-11T16:01:39.945Z,25.91
2023-05-11T16:04:07.857Z,25.87
2023-05-11T16:06:39.959Z,26.07
2023-05-11T16:09:10.207Z,26.08
2023-05-11T16:11:38.184Z,26.38
2023-05-11T16:14:06.103Z,26.55
2023-05-11T16:16:34.121Z,26.64
2023-05-11T16:19:02.659Z,26.73
2023-05-11T16:21:30.838Z,26.81
2023-05-11T16:23:59.960Z,26.92
2023-05-11T16:26:28.332Z,27.22
2023-05-11T16:28:56.292Z,27.36
2023-05-11T16:31:29.767Z,27.82
2023-05-11T16:34:00.041Z,28.09
2023-05-11T16:36:29.758Z,28.10
2023-05-11T16:38:57.625Z,28.39
2023-05-11T16:41:28.117Z,28.51
2023-05-11T16:43:56.136Z,28.65
2023-05-11T16:46:24.080Z,28.68
2023-05-11T16:48:51.976Z,29.10
2023-05-11T16:51:19.851Z,28.91
2023-05-11T16:53:47.956Z,29.02
2023-05-11T16:56:15.865Z,29.38
2023-05-11T16:58:43.770Z,29.46
2023-05-11T17:01:12.393Z,29.78
2023-05-11T17:03:40.551Z,29.96
2023-05-11T17:06:10.488Z,30.29
2023-05-11T17:08:39.132Z,30.17
2023-05-11T17:11:06.996Z,30.23
2023-05-11T17:13:34.891Z,30.39
2023-05-11T17:16:02.800Z,30.41
2023-05-11T17:18:30.719Z,30.54
2023-05-11T17:20:59.010Z,30.65
2023-05-11T17:23:26.962Z,30.72
2023-05-11T17:25:55.066Z,30.90
2023-05-11T17:28:22.958Z,30.99
2023-05-11T17:30:54.502Z,30.96
2023-05-11T17:33:23.558Z,31.03
2023-05-11T17:35:51.617Z,31.27
2023-05-11T17:38:19.583Z,31.25
2023-05-11T17:40:47.973Z,31.11
2023-05-11T17:43:16.542Z,31.30
2023-05-11T17:45:44.409Z,31.48
2023-05-11T17:48:13.950Z,31.57
2023-05-11T17:50:43.331Z,31.53
2023-05-11T17:53:11.298Z,31.73
2023-05-11T17:55:40.083Z,31.57
2023-05-11T17:58:08.405Z,31.59
2023-05-11T18:00:39.421Z,31.75
2023-05-11T18:03:10.871Z,31.82
2023-05-11T18:08:19.005Z,32.09
2023-05-11T18:10:46.938Z,32.03
2023-05-11T18:13:17.069Z,32.25
2023-05-11T18:15:49.786Z,32.32
2023-05-11T18:18:21.367Z,32.24
2023-05-11T18:20:52.726Z,32.62
2023-05-11T18:23:20.591Z,32.67
2023-05-11T18:25:48.858Z,32.65
2023-05-11T18:28:16.700Z,32.76
2023-05-11T18:30:44.658Z,32.89
2023-05-11T18:33:12.757Z,33.05
2023-05-11T18:35:41.793Z,33.11
2023-05-11T18:38:09.715Z,33.49
2023-05-11T18:40:37.868Z,33.57
2023-05-11T18:43:05.801Z,33.69
2023-05-11T18:45:36.017Z,33.62
2023-05-11T18:48:08.755Z,33.76
2023-05-11T18:50:40.448Z,34.06
2023-05-11T18:53:08.645Z,34.04
2023-05-11T18:55:51.866Z,34.04
2023-05-11T18:58:21.150Z,34.31
2023-05-11T19:00:50.767Z,34.56
2023-05-11T19:03:20.710Z,34.45
2023-05-11T19:05:49.430Z,34.56
2023-05-11T19:08:17.372Z,34.57
2023-05-11T19:10:47.186Z,34.56
2023-05-11T19:13:15.244Z,34.56
2023-05-11T19:15:44.072Z,34.64
2023-05-11T19:18:12.043Z,34.80
2023-05-11T19:20:40.059Z,34.99
2023-05-11T19:23:22.197Z,35.14
2023-05-11T19:28:49.579Z,35.51
2023-05-11T19:31:17.502Z,35.15
2023-05-11T19:33:45.551Z,35.61
2023-05-11T19:36:13.430Z,35.58
2023-05-11T19:38:41.317Z,35.91
2023-05-11T19:41:09.193Z,35.90
2023-05-11T19:43:37.339Z,35.81
2023-05-11T19:46:05.238Z,36.03
2023-05-11T19:48:33.286Z,36.23
2023-05-11T19:51:01.307Z,36.23
2023-05-11T19:53:29.611Z,36.31
2023-05-11T19:55:57.581Z,36.30
2023-05-11T19:58:25.592Z,36.41
2023-05-11T20:00:53.414Z,36.45
2023-05-11T20:03:21.964Z,36.58
2023-05-11T20:05:50.173Z,36.79
2023-05-11T20:08:18.090Z,36.92
2023-05-11T20:10:46.285Z,36.89
2023-05-11T20:13:14.195Z,37.08
2023-05-11T20:15:42.169Z,37.00
2023-05-11T20:18:10.708Z,37.34
2023-05-11T20:20:38.602Z,37.40
2023-05-11T20:23:06.527Z,37.43
2023-05-11T20:25:34.492Z,37.43
2023-05-11T20:28:04.336Z,37.71
2023-05-11T20:30:32.999Z,37.96
2023-05-11T20:35:32.934Z,37.97
2023-05-11T20:38:02.011Z,37.99
2023-05-11T20:40:30.433Z,38.03
2023-05-11T20:42:58.408Z,38.04
2023-05-11T20:45:26.529Z,38.18
2023-05-11T20:47:54.499Z,38.23
2023-05-11T20:50:23.519Z,38.28
2023-05-11T20:52:51.503Z,38.44
2023-05-11T20:55:19.639Z,38.26
2023-05-11T20:57:47.797Z,38.39
2023-05-11T21:00:16.272Z,38.71
2023-05-11T21:02:46.299Z,38.70
2023-05-11T21:05:14.536Z,38.60
2023-05-11T21:07:42.402Z,38.70
2023-05-11T21:10:12.491Z,38.72
2023-05-11T21:12:40.386Z,38.74
2023-05-11T21:15:09.001Z,38.72
2023-05-11T21:17:37.096Z,38.86
2023-05-11T21:20:05.541Z,38.90
2023-05-11T21:22:37.676Z,38.92
2023-05-11T21:25:06.061Z,38.85
2023-05-11T21:27:33.880Z,39.03
2023-05-11T21:30:01.751Z,38.90
2023-05-11T21:32:54.988Z,39.04
2023-05-11T21:35:23.001Z,39.08
2023-05-11T21:37:51.053Z,39.20
2023-05-11T21:40:19.006Z,39.34
2023-05-11T21:42:47.258Z,39.28
2023-05-11T21:45:15.927Z,39.39
2023-05-11T21:47:44.005Z,39.28
2023-05-11T21:50:12.315Z,39.33
2023-05-11T21:52:40.247Z,39.41
2023-05-11T21:55:08.543Z,39.44
2023-05-11T21:57:37.211Z,39.43
2023-05-11T22:00:05.765Z,39.74
2023-05-11T22:02:36.109Z,39.63
2023-05-11T22:05:04.700Z,39.46
2023-05-11T22:07:32.627Z,39.72
2023-05-11T22:10:00.552Z,39.76
2023-05-11T22:12:28.527Z,39.78
2023-05-11T22:14:58.147Z,39.83
2023-05-11T22:17:26.178Z,39.96
2023-05-11T22:19:54.118Z,39.79
2023-05-11T22:22:21.948Z,39.80
2023-05-11T22:24:50.386Z,39.77
2023-05-11T22:27:18.237Z,40.01
2023-05-11T22:29:46.109Z,39.90
2023-05-11T22:32:13.943Z,39.87
2023-05-11T22:34:41.964Z,39.97
2023-05-11T22:37:10.023Z,40.10
2023-05-11T22:39:37.911Z,39.98
2023-05-11T22:42:06.011Z,40.01
2023-05-11T22:44:33.835Z,39.99
2023-05-11T22:47:02.493Z,40.10
2023-05-11T22:49:30.494Z,40.10
2023-05-11T22:51:59.793Z,40.17
2023-05-11T22:54:27.689Z,40.08
2023-05-11T22:56:55.587Z,40.15
2023-05-11T22:59:23.684Z,40.23
2023-05-11T23:01:51.663Z,40.17
2023-05-11T23:04:19.531Z,40.31
2023-05-11T23:06:47.410Z,40.33
2023-05-11T23:09:16.034Z,40.54
2023-05-11T23:11:44.334Z,40.58
2023-05-11T23:14:12.483Z,40.62
2023-05-11T23:16:40.706Z,40.70
2023-05-11T23:19:08.600Z,40.80
2023-05-11T23:21:36.539Z,40.86
2023-05-11T23:24:05.009Z,41.08
2023-05-11T23:26:32.911Z,41.00
2023-05-11T23:29:01.090Z,41.04
2023-05-11T23:31:29.056Z,41.26
2023-05-11T23:33:57.013Z,41.32
2023-05-11T23:36:24.963Z,41.36
2023-05-11T23:38:53.926Z,41.27
2023-05-11T23:41:22.404Z,41.42
2023-05-11T23:43:50.288Z,41.43
2023-05-11T23:46:18.506Z,41.46
2023-05-11T23:48:46.423Z,41.82
2023-05-11T23:51:14.569Z,41.70
2023-05-11T23:53:43.224Z,41.69
2023-05-11T23:56:11.218Z,41.74
2023-05-11T23:58:41.494Z,41.87
